createdAt,value
2019-02-02T04:02:11.362Z,18.40
2019-02-02T04:04:40.014Z,18.97
2019-02-02T04:07:08.638Z,18.77
2019-02-02T04:09:37.287Z,18.17
2019-02-02T04:12:05.913Z,19.30
2019-02-02T04:14:34.876Z,17.83
2019-02-02T04:17:03.508Z,17.90
2019-02-02T04:19:32.146Z,17.63
2019-02-02T04:22:00.769Z,19.73
2019-02-02T04:24:29.395Z,19.53
2019-02-02T04:26:58.034Z,19.70
2019-02-02T04:29:26.659Z,20.00
2019-02-02T04:31:55.303Z,19.03
2019-02-02T04:34:23.942Z,18.10
2019-02-02T04:36:52.592Z,18.50
2019-02-02T04:39:21.209Z,17.60
2019-02-02T04:41:50.338Z,18.07
2019-02-02T04:44:18.964Z,18.60
2019-02-02T04:46:47.586Z,18.97
2019-02-02T04:49:16.239Z,17.83
2019-02-02T04:51:44.857Z,22.43
2019-02-02T04:54:13.501Z,22.47
2019-02-02T04:56:42.125Z,19.03
2019-02-02T04:59:10.741Z,17.63
2019-02-02T05:01:39.454Z,18.60
2019-02-02T05:04:08.102Z,19.20
2019-02-02T05:06:36.750Z,19.90
2019-02-02T05:09:07.322Z,18.60
2019-02-02T05:11:35.965Z,19.43
2019-02-02T05:14:05.093Z,18.53
2019-02-02T05:16:34.002Z,19.40
2019-02-02T05:19:02.624Z,18.17
2019-02-02T05:21:31.241Z,19.57
2019-02-02T05:23:59.882Z,17.90
2019-02-02T05:26:28.502Z,20.17
2019-02-02T05:28:57.155Z,20.83
2019-02-02T05:31:25.778Z,19.90
2019-02-02T05:33:54.402Z,18.33
2019-02-02T05:36:23.063Z,17.87
2019-02-02T05:38:51.698Z,19.43
2019-02-02T05:41:20.337Z,20.77
2019-02-02T05:43:48.962Z,20.27
2019-02-02T05:46:17.605Z,20.00
2019-02-02T05:48:46.226Z,17.97
2019-02-02T05:51:14.870Z,18.83
2019-02-02T05:53:43.494Z,18.63
2019-02-02T05:56:12.190Z,18.67
2019-02-02T05:58:40.813Z,19.50
2019-02-02T06:01:14.068Z,18.50
2019-02-02T06:03:42.687Z,18.53
2019-02-02T06:06:11.359Z,20.30
2019-02-02T06:08:40.007Z,18.00
2019-02-02T06:11:08.625Z,18.90
2019-02-02T06:13:37.271Z,20.13
2019-02-02T06:16:05.891Z,19.53
2019-02-02T06:18:34.514Z,18.87
2019-02-02T06:21:03.178Z,18.10
2019-02-02T06:23:32.077Z,18.67
2019-02-02T06:26:00.716Z,19.10
2019-02-02T06:28:29.350Z,18.67
2019-02-02T06:31:00.125Z,19.10
2019-02-02T06:33:28.338Z,17.93
2019-02-02T06:35:56.977Z,18.67
2019-02-02T06:38:25.621Z,19.53
2019-02-02T06:40:54.251Z,19.50
2019-02-02T06:43:22.873Z,18.00
2019-02-02T06:45:51.509Z,18.27
2019-02-02T06:48:20.131Z,21.53
2019-02-02T06:50:48.773Z,20.30
2019-02-02T06:53:17.394Z,21.63
2019-02-02T06:55:46.018Z,19.47
2019-02-02T06:58:14.669Z,18.90
2019-02-02T07:00:43.296Z,19.83
2019-02-02T07:03:13.322Z,19.10
2019-02-02T07:05:41.961Z,20.60
2019-02-02T07:08:10.644Z,19.27
2019-02-02T07:10:39.306Z,20.13
2019-02-02T07:13:07.949Z,20.73
2019-02-02T07:15:36.572Z,19.27
2019-02-02T07:18:05.209Z,19.70
2019-02-02T07:20:33.873Z,20.93
2019-02-02T07:23:02.525Z,20.47
2019-02-02T07:25:31.326Z,21.07
2019-02-02T07:27:59.968Z,21.83
2019-02-02T07:30:29.818Z,20.93
2019-02-02T07:32:58.523Z,19.33
2019-02-02T07:35:27.249Z,19.70
2019-02-02T07:37:55.890Z,20.67
2019-02-02T07:40:24.570Z,19.50
2019-02-02T07:42:53.214Z,20.13
2019-02-02T07:45:24.074Z,20.67
2019-02-02T07:47:52.718Z,22.07
2019-02-02T07:50:21.352Z,20.63
2019-02-02T07:52:49.970Z,20.00
2019-02-02T07:55:19.083Z,21.97
2019-02-02T07:57:47.701Z,20.20
2019-02-02T08:00:21.781Z,19.90
2019-02-02T08:02:50.409Z,20.00
2019-02-02T08:05:19.041Z,20.20
2019-02-02T08:07:47.709Z,21.00
2019-02-02T08:10:16.332Z,19.87
2019-02-02T08:12:44.993Z,20.87
2019-02-02T08:15:16.326Z,19.73
2019-02-02T08:17:44.946Z,21.40
2019-02-02T08:20:13.782Z,22.63
2019-02-02T08:22:42.477Z,22.83
2019-02-02T08:25:11.998Z,21.47
2019-02-02T08:27:40.621Z,21.50
2019-02-02T08:30:16.581Z,21.93
2019-02-02T08:32:45.402Z,23.10
2019-02-02T08:35:14.033Z,21.70
2019-02-02T08:37:42.689Z,22.10
2019-02-02T08:40:12.076Z,22.13
2019-02-02T08:42:40.722Z,21.70
2019-02-02T08:45:09.921Z,23.07
2019-02-02T08:47:38.561Z,23.60
2019-02-02T08:50:11.890Z,24.17
2019-02-02T08:52:40.613Z,25.07
2019-02-02T08:55:09.417Z,25.00
2019-02-02T08:57:38.048Z,25.47
2019-02-02T09:00:09.406Z,22.50
2019-02-02T09:02:38.048Z,24.90
2019-02-02T09:05:06.934Z,23.10
2019-02-02T09:07:38.273Z,25.30
2019-02-02T09:10:08.905Z,25.20
2019-02-02T09:12:37.557Z,24.10
2019-02-02T09:15:07.259Z,24.37
2019-02-02T09:17:35.879Z,22.97
2019-02-02T09:20:05.550Z,24.17
2019-02-02T09:22:34.194Z,24.93
2019-02-02T09:25:02.849Z,22.80
2019-02-02T09:27:31.475Z,25.10
2019-02-02T09:30:00.429Z,27.27
2019-02-02T09:32:29.109Z,25.83
2019-02-02T09:34:57.790Z,26.90
2019-02-02T09:37:26.718Z,25.73
2019-02-02T09:39:55.341Z,25.70
2019-02-02T09:42:24.109Z,25.97
2019-02-02T09:44:52.733Z,25.10
2019-02-02T09:47:21.354Z,23.40
2019-02-02T09:49:50.011Z,24.83
2019-02-02T09:52:18.629Z,23.90
2019-02-02T09:54:47.289Z,32.43
2019-02-02T09:57:17.177Z,27.87
2019-02-02T09:59:45.910Z,27.03
2019-02-02T10:02:14.550Z,26.77
2019-02-02T10:04:43.175Z,29.00
2019-02-02T10:07:11.909Z,25.93
2019-02-02T10:09:40.534Z,26.70
2019-02-02T10:12:09.161Z,26.23
2019-02-02T10:14:37.810Z,24.67
2019-02-02T10:17:08.907Z,25.47
2019-02-02T10:19:37.558Z,24.20
2019-02-02T10:22:06.218Z,25.80
2019-02-02T10:24:35.010Z,24.63
2019-02-02T10:27:03.827Z,27.10
2019-02-02T10:29:32.461Z,25.83
2019-02-02T10:32:01.253Z,25.30
2019-02-02T10:34:29.874Z,25.10
2019-02-02T10:36:58.494Z,23.23
2019-02-02T10:39:27.133Z,23.57
2019-02-02T10:41:55.778Z,25.23
2019-02-02T10:44:24.446Z,25.43
2019-02-02T10:46:53.071Z,24.53
2019-02-02T10:49:21.697Z,24.07
2019-02-02T10:51:50.610Z,23.77
2019-02-02T10:54:19.225Z,24.10
2019-02-02T10:56:48.106Z,24.27
2019-02-02T10:59:16.730Z,23.33
2019-02-02T11:01:51.186Z,23.97
2019-02-02T11:04:15.840Z,24.00
2019-02-02T11:06:44.753Z,25.37
2019-02-02T11:09:13.470Z,24.80
2019-02-02T11:11:42.303Z,23.93
2019-02-02T11:14:10.943Z,25.50
2019-02-02T11:16:40.141Z,23.70
2019-02-02T11:19:08.832Z,25.40
2019-02-02T11:21:37.513Z,25.20
2019-02-02T11:24:06.486Z,24.17
2019-02-02T11:26:35.268Z,24.37
2019-02-02T11:29:04.119Z,25.03
2019-02-02T11:31:32.738Z,25.50
2019-02-02T11:34:01.640Z,24.63
2019-02-02T11:36:30.601Z,26.20
2019-02-02T11:38:59.744Z,25.80
2019-02-02T11:41:28.469Z,26.20
2019-02-02T11:43:57.137Z,26.53
2019-02-02T11:46:25.790Z,24.90
2019-02-02T11:48:54.418Z,26.27
2019-02-02T11:51:23.068Z,28.80
2019-02-02T11:53:51.699Z,25.57
2019-02-02T11:56:20.334Z,24.97
2019-02-02T11:58:48.982Z,26.27
2019-02-02T12:01:17.610Z,26.87
2019-02-02T12:03:46.259Z,25.30
2019-02-02T12:06:14.898Z,24.83
2019-02-02T12:08:43.558Z,24.73
2019-02-02T12:11:12.276Z,24.47
2019-02-02T12:13:40.900Z,24.23
2019-02-02T12:16:09.539Z,24.97
2019-02-02T12:18:38.193Z,25.33
2019-02-02T12:21:06.863Z,24.20
2019-02-02T12:23:35.761Z,24.77
2019-02-02T12:26:04.389Z,25.57
2019-02-02T12:28:33.061Z,24.23
2019-02-02T12:31:01.705Z,25.10
2019-02-02T12:33:30.343Z,22.53
2019-02-02T12:35:58.976Z,25.00
2019-02-02T12:38:27.594Z,26.03
2019-02-02T12:40:56.242Z,23.40
2019-02-02T12:43:24.861Z,23.67
2019-02-02T12:45:54.150Z,25.67
2019-02-02T12:48:22.771Z,23.57
2019-02-02T12:50:51.420Z,25.47
2019-02-02T12:53:20.042Z,24.00
2019-02-02T12:55:48.670Z,26.53
2019-02-02T12:58:17.317Z,23.13
2019-02-02T13:00:45.945Z,25.50
2019-02-02T13:03:14.577Z,25.60
2019-02-02T13:05:43.201Z,24.97
2019-02-02T13:08:11.825Z,23.40
2019-02-02T13:10:40.473Z,24.53
2019-02-02T13:13:09.397Z,23.77
2019-02-02T13:15:38.077Z,24.10
2019-02-02T13:18:06.701Z,24.97
2019-02-02T13:20:35.334Z,22.93
2019-02-02T13:23:33.943Z,24.70
2019-02-02T13:26:08.437Z,22.90
2019-02-02T13:28:37.146Z,23.70
2019-02-02T13:31:05.778Z,24.27
2019-02-02T13:33:34.445Z,23.97
2019-02-02T13:36:03.094Z,24.93
2019-02-02T13:38:31.722Z,23.67
2019-02-02T13:41:00.393Z,27.60
2019-02-02T13:43:28.996Z,28.63
2019-02-02T13:46:01.968Z,26.70
2019-02-02T13:48:30.774Z,25.40
2019-02-02T13:50:59.439Z,25.10
2019-02-02T13:53:28.122Z,24.40
2019-02-02T13:55:56.748Z,24.17
2019-02-02T13:58:25.371Z,26.40
2019-02-02T14:00:54.015Z,25.73
2019-02-02T14:03:22.990Z,25.33
2019-02-02T14:05:51.930Z,25.50
2019-02-02T14:08:20.550Z,25.00
2019-02-02T14:10:49.173Z,24.00
2019-02-02T14:13:17.846Z,25.60
2019-02-02T14:15:46.467Z,23.83
2019-02-02T14:18:15.112Z,24.10
2019-02-02T14:20:43.726Z,25.30
2019-02-02T14:23:12.349Z,25.57
2019-02-02T14:25:41.265Z,24.10
2019-02-02T14:28:09.882Z,23.97
2019-02-02T14:30:38.517Z,23.67
2019-02-02T14:33:14.276Z,23.40
2019-02-02T14:35:37.506Z,23.47
2019-02-02T14:38:06.117Z,24.10
2019-02-02T14:40:34.734Z,23.90
2019-02-02T14:43:03.373Z,23.60
2019-02-02T14:45:31.989Z,23.63
2019-02-02T14:48:00.669Z,21.80
2019-02-02T14:50:31.987Z,22.77
2019-02-02T14:52:59.626Z,21.93
2019-02-02T14:55:29.214Z,24.50
2019-02-02T14:57:57.837Z,22.23
2019-02-02T15:00:27.811Z,23.83
2019-02-02T15:02:56.471Z,24.70
2019-02-02T15:05:25.121Z,24.23
2019-02-02T15:07:53.762Z,23.73
2019-02-02T15:10:23.147Z,25.27
2019-02-02T15:12:51.906Z,24.37
2019-02-02T15:15:20.675Z,24.37
2019-02-02T15:17:49.302Z,24.23
2019-02-02T15:20:22.902Z,23.60
2019-02-02T15:22:51.522Z,23.87
2019-02-02T15:25:20.714Z,23.57
2019-02-02T15:27:49.413Z,25.37
2019-02-02T16:12:07.322Z,27.67
2019-02-02T16:14:35.933Z,29.10
2019-02-02T16:17:04.506Z,27.57
2019-02-02T16:19:33.101Z,27.90
2019-02-02T16:22:01.710Z,27.03
2019-02-02T16:24:30.289Z,28.43
2019-02-02T16:26:58.891Z,31.13
2019-02-02T16:29:27.469Z,33.93
2019-02-02T16:31:56.049Z,37.33
2019-02-02T16:34:24.664Z,38.47
2019-02-02T16:36:53.241Z,35.30
2019-02-02T16:39:21.829Z,36.67
2019-02-02T16:41:50.475Z,37.27
2019-02-02T16:44:19.114Z,38.63
2019-02-02T16:46:47.691Z,39.53
2019-02-02T16:49:16.292Z,39.37
2019-02-02T16:51:44.902Z,39.67
2019-02-02T16:54:13.477Z,36.20
2019-02-02T16:56:42.199Z,34.93
2019-02-02T16:59:10.806Z,32.47
2019-02-02T17:01:39.385Z,34.27
2019-02-02T17:04:15.399Z,34.90
2019-02-02T17:06:38.296Z,33.23
2019-02-02T17:09:08.777Z,32.77
2019-02-02T17:11:37.369Z,32.23
2019-02-02T17:14:05.985Z,33.53
2019-02-02T17:16:34.582Z,35.20
2019-02-02T17:19:03.267Z,35.03
2019-02-02T17:21:31.841Z,33.63
2019-02-02T17:24:00.422Z,33.67
2019-02-02T17:26:29.025Z,30.40
2019-02-02T17:28:57.639Z,33.60
2019-02-02T17:31:26.314Z,30.83
2019-02-02T17:33:54.956Z,33.47
2019-02-02T17:36:23.538Z,29.23
2019-02-02T17:38:52.117Z,31.73
2019-02-02T17:41:20.771Z,30.23
2019-02-02T17:43:49.362Z,30.43
2019-02-02T17:46:17.948Z,31.37
2019-02-02T17:48:46.873Z,29.77
2019-02-02T17:51:15.758Z,29.00
2019-02-02T17:53:45.333Z,28.90
2019-02-02T17:56:13.933Z,30.07
2019-02-02T17:58:42.861Z,30.77
2019-02-02T18:01:11.461Z,30.30
2019-02-02T18:03:40.086Z,31.07
2019-02-02T18:06:08.665Z,31.80
2019-02-02T18:08:37.581Z,32.97
2019-02-02T18:11:06.193Z,33.73
2019-02-02T18:13:35.058Z,32.03
2019-02-02T18:16:03.642Z,32.17
2019-02-02T18:18:32.279Z,33.03
2019-02-02T18:21:00.858Z,33.23
2019-02-02T18:23:29.478Z,34.03
2019-02-02T18:25:58.103Z,33.87
2019-02-02T18:28:26.681Z,34.53
2019-02-02T18:30:55.262Z,34.97
2019-02-02T18:33:23.857Z,36.57
2019-02-02T18:35:52.438Z,41.67
2019-02-02T18:38:21.032Z,39.57
2019-02-02T18:40:49.882Z,38.50
2019-02-02T18:43:18.454Z,41.83
2019-02-02T18:45:47.058Z,40.73
2019-02-02T18:48:15.645Z,46.87
2019-02-02T18:50:44.241Z,43.13
2019-02-02T18:53:12.850Z,42.43
2019-02-02T18:55:54.534Z,42.53
2019-02-02T18:58:23.140Z,41.47
2019-02-02T19:00:51.709Z,39.50
2019-02-02T19:03:20.287Z,42.43
2019-02-02T19:05:48.891Z,40.43
2019-02-02T19:08:17.470Z,39.77
2019-02-02T19:10:46.042Z,44.50
2019-02-02T19:13:14.638Z,38.70
2019-02-02T19:15:43.219Z,40.70
2019-02-02T19:18:11.793Z,39.07
2019-02-02T19:20:40.389Z,39.93
2019-02-02T19:23:08.971Z,35.77
2019-02-02T19:25:37.545Z,37.73
2019-02-02T19:28:07.469Z,37.03
2019-02-02T19:30:36.095Z,35.87
2019-02-02T19:33:04.777Z,36.20
2019-02-02T19:35:33.391Z,37.60
2019-02-02T19:38:01.970Z,37.30
2019-02-02T19:40:30.638Z,36.63
2019-02-02T19:42:59.340Z,35.93
2019-02-02T19:45:28.040Z,33.77
2019-02-02T19:47:56.653Z,34.90
2019-02-02T19:50:25.716Z,35.43
2019-02-02T19:52:54.629Z,36.10
2019-02-02T19:55:23.586Z,34.63
2019-02-02T19:57:52.184Z,35.63
2019-02-02T20:00:22.935Z,34.30
2019-02-02T20:02:51.553Z,35.47
2019-02-02T20:05:28.277Z,39.97
2019-02-02T20:07:50.480Z,42.27
2019-02-02T20:10:19.434Z,35.93
2019-02-02T20:12:48.022Z,37.50
2019-02-02T20:15:18.529Z,34.30
2019-02-02T20:17:47.134Z,34.50
2019-02-02T20:20:17.704Z,34.07
2019-02-02T20:22:46.409Z,31.90
2019-02-02T20:25:15.015Z,34.30
2019-02-02T20:27:43.643Z,34.00
2019-02-02T20:30:15.354Z,34.60
2019-02-02T20:32:43.985Z,34.47
2019-02-02T20:35:12.682Z,32.93
2019-02-02T20:37:41.291Z,33.10
2019-02-02T20:40:12.574Z,32.47
2019-02-02T20:42:41.291Z,34.60
2019-02-02T20:45:12.289Z,31.80
2019-02-02T20:47:40.884Z,33.80
2019-02-02T20:50:12.318Z,35.50
2019-02-02T20:52:47.419Z,35.03
2019-02-02T20:55:13.968Z,33.07
2019-02-02T20:57:45.798Z,34.10
2019-02-02T21:00:15.895Z,32.93
2019-02-02T21:02:44.867Z,34.20
2019-02-02T21:05:13.921Z,34.10
2019-02-02T21:07:42.520Z,36.00
2019-02-02T21:10:13.778Z,33.37
2019-02-02T21:12:42.375Z,36.50
2019-02-02T21:15:11.407Z,36.10
2019-02-02T21:17:39.977Z,37.17
2019-02-02T21:20:13.834Z,35.37
2019-02-02T21:22:42.445Z,35.97
2019-02-02T21:25:11.070Z,33.60
2019-02-02T21:27:39.657Z,34.73
2019-02-02T21:30:11.983Z,35.03
2019-02-02T21:32:43.591Z,36.17
2019-02-02T21:35:12.192Z,33.83
2019-02-02T21:37:41.169Z,35.07
2019-02-02T21:40:11.801Z,34.50
2019-02-02T21:42:40.381Z,32.43
2019-02-02T21:45:10.529Z,36.80
2019-02-02T21:47:39.115Z,33.50
2019-02-02T21:50:10.667Z,32.20
2019-02-02T21:52:39.561Z,33.57
2019-02-02T21:55:09.955Z,33.53
2019-02-02T21:57:38.577Z,34.60
2019-02-02T22:00:17.788Z,34.63
2019-02-02T22:02:46.376Z,35.60
2019-02-02T22:05:14.953Z,34.27
2019-02-02T22:07:43.800Z,34.93
2019-02-02T22:10:12.413Z,32.87
2019-02-02T22:12:40.998Z,33.27
2019-02-02T22:15:13.669Z,34.80
2019-02-02T22:17:42.249Z,32.77
2019-02-02T22:20:12.510Z,31.20
2019-02-02T22:22:41.102Z,30.27
2019-02-02T22:25:15.502Z,34.13
2019-02-02T22:27:44.498Z,32.63
2019-02-02T22:30:24.933Z,33.17
2019-02-02T22:32:53.558Z,31.53
2019-02-02T22:35:22.147Z,31.60
2019-02-02T22:37:50.721Z,32.27
2019-02-02T22:40:21.193Z,31.50
2019-02-02T22:42:49.946Z,31.30
2019-02-02T22:45:19.089Z,30.87
2019-02-02T22:47:47.696Z,29.23
2019-02-02T22:50:18.099Z,31.33
2019-02-02T22:52:47.054Z,30.83
2019-02-02T22:55:16.105Z,29.87
2019-02-02T22:57:44.681Z,29.83
